createdAt,value
2023-01-06T00:02:04.952Z,96727.06
2023-01-06T00:04:31.575Z,96728.75
2023-01-06T00:06:58.177Z,96725.28
2023-01-06T00:09:24.929Z,96727.06
2023-01-06T00:11:51.505Z,96723.72
2023-01-06T00:14:18.005Z,96729.09
2023-01-06T00:16:44.641Z,96718.91
2023-01-06T00:19:11.485Z,96719.16
2023-01-06T00:21:38.041Z,96719.16
2023-01-06T00:24:04.604Z,96723.59
2023-01-06T00:26:31.136Z,96725.16
2023-01-06T00:28:57.974Z,96727.66
2023-01-06T00:31:24.526Z,96732.59
2023-01-06T00:33:51.460Z,96727.56
2023-01-06T00:36:18.227Z,96721.94
2023-01-06T00:38:44.781Z,96720.38
2023-01-06T00:41:31.506Z,96724.09
2023-01-06T00:43:58.665Z,96725.88
2023-01-06T00:46:28.932Z,96721.59
2023-01-06T00:49:04.618Z,96718.22
2023-01-06T00:51:31.749Z,96729.16
2023-01-06T00:53:59.215Z,96729.03
2023-01-06T00:59:57.721Z,96728.06
2023-01-06T01:02:24.393Z,96731.91
2023-01-06T01:04:51.081Z,96734.78
2023-01-06T01:07:17.636Z,96738.75
2023-01-06T01:09:44.232Z,96745.97
2023-01-06T01:12:12.077Z,96744.88
2023-01-06T01:14:40.449Z,96753.41
2023-01-06T01:17:07.440Z,96757.59
2023-01-06T01:19:34.433Z,96762.06
2023-01-06T01:22:01.077Z,96756.78
2023-01-06T01:24:27.700Z,96761.69
2023-01-06T01:26:54.393Z,96765.28
2023-01-06T01:29:21.194Z,96763.38
2023-01-06T01:31:47.907Z,96772.63
2023-01-06T01:34:15.298Z,96776.22
2023-01-06T01:36:42.357Z,96775.13
2023-01-06T01:39:09.692Z,96774.06
2023-01-06T01:41:36.296Z,96784.38
2023-01-06T01:44:22.983Z,96773.81
2023-01-06T01:46:49.719Z,96775.25
2023-01-06T01:49:24.852Z,96780.03
2023-01-06T01:51:53.079Z,96779.94
2023-01-06T01:54:22.513Z,96774.53
2023-01-06T01:56:53.050Z,96776.69
2023-01-06T01:59:21.770Z,96771.28
2023-01-06T02:01:49.178Z,96779.69
2023-01-06T02:04:16.520Z,96769.72
2023-01-06T02:06:43.278Z,96771.03
2023-01-06T02:09:16.327Z,96772.13
2023-01-06T02:11:44.096Z,96764.66
2023-01-06T02:14:12.192Z,96763.13
2023-01-06T02:16:56.948Z,96762.00
2023-01-06T02:19:23.440Z,96771.50
2023-01-06T02:22:08.531Z,96767.91
2023-01-06T02:24:49.341Z,96765.25
2023-01-06T02:27:15.840Z,96764.28
2023-01-06T02:30:03.474Z,96768.72
2023-01-06T02:32:30.012Z,96774.25
2023-01-06T02:34:59.510Z,96769.09
2023-01-06T02:37:28.817Z,96770.91
2023-01-06T02:40:05.515Z,96772.56
2023-01-06T02:42:50.164Z,96768.97
2023-01-06T02:45:22.585Z,96771.16
2023-01-06T02:48:12.193Z,96772.19
2023-01-06T02:50:43.940Z,96765.56
2023-01-06T02:53:28.847Z,96760.06
2023-01-06T02:55:56.837Z,96762.81
2023-01-06T02:58:23.358Z,96762.81
2023-01-06T03:00:53.399Z,96759.44
2023-01-06T03:03:22.436Z,96760.19
2023-01-06T03:05:52.157Z,96768.22
2023-01-06T03:08:22.369Z,96763.91
2023-01-06T03:10:49.355Z,96761.84
2023-01-06T03:13:19.220Z,96764.03
2023-01-06T03:15:45.837Z,96764.03
2023-01-06T03:18:12.424Z,96760.69
2023-01-06T03:20:39.232Z,96759.00
2023-01-06T03:23:06.204Z,96761.53
2023-01-06T03:25:32.824Z,96759.38
2023-01-06T03:27:59.339Z,96760.66
2023-01-06T03:30:32.635Z,96766.34
2023-01-06T03:33:02.814Z,96764.25
2023-01-06T03:35:41.376Z,96760.31
2023-01-06T03:38:26.598Z,96759.72
2023-01-06T03:41:11.637Z,96755.28
2023-01-06T03:43:50.429Z,96750.84
2023-01-06T03:46:34.913Z,96743.75
2023-01-06T03:49:07.396Z,96720.44
2023-01-06T03:51:54.825Z,96711.19
2023-01-06T03:54:24.923Z,96713.63
2023-01-06T03:56:54.949Z,96709.34
2023-01-06T03:59:28.344Z,96710.78
2023-01-06T04:01:54.988Z,96706.00
2023-01-06T04:04:21.627Z,96696.16
2023-01-06T04:06:48.175Z,96710.91
2023-01-06T04:09:14.666Z,96703.81
2023-01-06T04:11:59.726Z,96708.53
2023-01-06T04:14:26.302Z,96710.09
2023-01-06T04:16:52.914Z,96715.13
2023-01-06T04:19:19.578Z,96718.13
2023-01-06T04:21:46.127Z,96727.13
2023-01-06T04:24:12.644Z,96733.59
2023-01-06T04:26:39.145Z,96737.69
2023-01-06T04:29:05.667Z,96733.47
2023-01-06T04:31:34.057Z,96738.63
2023-01-06T04:34:01.885Z,96743.31
2023-01-06T04:36:28.499Z,96744.72
2023-01-06T04:38:55.015Z,96744.84
2023-01-06T04:41:21.512Z,96750.81
2023-01-06T04:43:48.641Z,96746.69
2023-01-06T04:46:15.265Z,96747.53
2023-01-06T04:48:41.862Z,96747.03
2023-01-06T04:51:09.667Z,96751.16
2023-01-06T04:53:37.385Z,96751.03
2023-01-06T04:56:05.112Z,96764.09
2023-01-06T04:58:32.067Z,96761.34
2023-01-06T05:01:02.550Z,96765.44
2023-01-06T05:03:29.222Z,96772.59
2023-01-06T05:05:55.763Z,96781.94
2023-01-06T05:08:22.301Z,96778.09
2023-01-06T05:10:49.017Z,96778.09
2023-01-06T05:13:15.461Z,96780.00
2023-01-06T05:15:42.066Z,96778.47
2023-01-06T05:18:08.634Z,96790.78
2023-01-06T05:20:35.139Z,96791.44
2023-01-06T05:23:01.666Z,96788.09
2023-01-06T05:25:28.220Z,96795.66
2023-01-06T05:27:54.747Z,96794.09
2023-01-06T05:30:21.234Z,96791.56
2023-01-06T05:32:47.803Z,96796.41
2023-01-06T05:35:14.332Z,96792.22
2023-01-06T05:37:40.879Z,96800.00
2023-01-06T05:40:07.666Z,96807.94
2023-01-06T05:42:34.157Z,96815.31
2023-01-06T05:45:00.707Z,96819.03
2023-01-06T05:47:27.221Z,96818.44
2023-01-06T05:49:53.697Z,96822.00
2023-01-06T05:52:20.195Z,96825.59
2023-01-06T05:54:47.319Z,96827.03
2023-01-06T05:57:14.102Z,96815.16
2023-01-06T05:59:40.624Z,96828.44
2023-01-06T06:02:07.188Z,96827.81
2023-01-06T06:04:33.698Z,96834.59
2023-01-06T06:07:00.221Z,96845.03
2023-01-06T06:09:26.813Z,96850.19
2023-01-06T06:11:56.331Z,96851.03
2023-01-06T06:14:22.861Z,96849.13
2023-01-06T06:16:49.536Z,96851.88
2023-01-06T06:19:16.066Z,96842.94
2023-01-06T06:21:42.596Z,96842.84
2023-01-06T06:24:09.310Z,96847.25
2023-01-06T06:26:35.801Z,96845.38
2023-01-06T06:29:02.287Z,96843.91
2023-01-06T06:31:29.482Z,96844.56
2023-01-06T06:33:57.429Z,96846.66
2023-01-06T06:36:24.466Z,96849.63
2023-01-06T06:38:51.924Z,96847.91
2023-01-06T06:41:19.656Z,96849.38
2023-01-06T06:43:46.250Z,96855.69
2023-01-06T06:46:12.965Z,96859.81
2023-01-06T06:48:39.915Z,96856.72
2023-01-06T06:51:07.781Z,96858.59
2023-01-06T06:53:35.239Z,96854.81
2023-01-06T06:56:02.073Z,96861.66
2023-01-06T06:58:28.935Z,96859.66
2023-01-06T07:00:55.647Z,96861.63
2023-01-06T07:03:23.049Z,96863.16
2023-01-06T07:05:50.775Z,96858.13
2023-01-06T07:08:17.376Z,96860.75
2023-01-06T07:10:43.931Z,96858.53
2023-01-06T07:13:10.550Z,96856.28
2023-01-06T07:15:37.136Z,96861.22
2023-01-06T07:18:04.877Z,96857.50
2023-01-06T07:20:32.977Z,96860.59
2023-01-06T07:22:59.629Z,96856.06
2023-01-06T07:25:26.162Z,96861.72
2023-01-06T07:27:59.831Z,96866.44
2023-01-06T07:30:27.286Z,96860.91
2023-01-06T07:32:53.887Z,96858.78
2023-01-06T07:35:20.518Z,96860.22
2023-01-06T07:37:47.024Z,96863.63
2023-01-06T07:40:14.114Z,96854.16
2023-01-06T07:42:40.718Z,96851.53
2023-01-06T07:45:07.982Z,96850.75
2023-01-06T07:47:34.714Z,96843.22
2023-01-06T07:50:01.322Z,96845.97
2023-01-06T07:52:27.841Z,96845.44
2023-01-06T07:54:56.880Z,96840.53
2023-01-06T07:57:23.420Z,96837.53
2023-01-06T07:59:49.932Z,96836.66
2023-01-06T08:02:16.454Z,96833.69
2023-01-06T08:04:43.141Z,96837.22
2023-01-06T08:07:09.630Z,96835.34
2023-01-06T08:09:36.212Z,96830.84
2023-01-06T08:12:02.805Z,96828.94
2023-01-06T08:14:29.287Z,96824.25
2023-01-06T08:16:55.784Z,96818.72
2023-01-06T08:19:22.438Z,96818.19
2023-01-06T08:21:48.973Z,96815.94
2023-01-06T08:24:16.057Z,96824.91
2023-01-06T08:26:42.681Z,96821.69
2023-01-06T08:29:09.183Z,96816.97
2023-01-06T08:31:35.731Z,96816.66
2023-01-06T08:34:02.345Z,96811.78
2023-01-06T08:36:28.953Z,96812.59
2023-01-06T08:38:55.538Z,96815.41
2023-01-06T08:41:22.363Z,96814.28
2023-01-06T08:43:48.865Z,96825.50
2023-01-06T08:46:19.661Z,96821.53
2023-01-06T08:48:47.063Z,96826.94
2023-01-06T08:51:21.441Z,96832.63
2023-01-06T08:53:47.956Z,96833.50
2023-01-06T08:56:16.269Z,96833.72
2023-01-06T08:58:43.003Z,96834.00
2023-01-06T09:01:20.562Z,96830.66
2023-01-06T09:03:47.239Z,96829.56
2023-01-06T09:06:14.359Z,96826.38
2023-01-06T09:08:40.846Z,96835.41
2023-01-06T09:11:08.030Z,96827.63
2023-01-06T09:13:34.667Z,96843.91
2023-01-06T09:16:02.341Z,96830.59
2023-01-06T09:18:28.978Z,96836.75
2023-01-06T09:20:55.491Z,96831.47
2023-01-06T09:23:23.594Z,96834.78
2023-01-06T09:25:50.805Z,96834.63
2023-01-06T09:28:17.368Z,96837.75
2023-01-06T09:30:46.466Z,96828.97
2023-01-06T09:33:13.012Z,96830.50
2023-01-06T09:35:39.509Z,96833.16
2023-01-06T09:38:06.001Z,96825.31
2023-01-06T09:40:43.121Z,96832.72
2023-01-06T09:43:24.694Z,96825.19
2023-01-06T09:45:54.448Z,96822.78
2023-01-06T09:48:25.439Z,96820.00
2023-01-06T09:50:56.190Z,96810.94
2023-01-06T09:53:26.076Z,96804.56
2023-01-06T09:55:58.041Z,96801.69
2023-01-06T09:58:28.444Z,96799.19
2023-01-06T10:00:56.126Z,96792.66
2023-01-06T10:03:23.902Z,96792.66
2023-01-06T10:05:59.479Z,96782.88
2023-01-06T10:08:53.316Z,96787.50
2023-01-06T10:11:30.981Z,96777.41
2023-01-06T10:14:03.554Z,96774.91
2023-01-06T10:16:39.067Z,96774.34
2023-01-06T10:19:05.597Z,96771.56
2023-01-06T10:21:39.964Z,96763.47
2023-01-06T10:24:16.959Z,96754.94
2023-01-06T10:26:44.901Z,96749.78
2023-01-06T10:29:20.717Z,96747.44
2023-01-06T10:31:48.851Z,96743.94
2023-01-06T10:34:20.032Z,96740.31
2023-01-06T10:36:48.589Z,96734.75
2023-01-06T10:39:26.569Z,96734.31
2023-01-06T10:41:53.610Z,96726.16
2023-01-06T10:44:20.332Z,96725.72
2023-01-06T10:46:49.548Z,96715.84
2023-01-06T10:49:18.583Z,96721.16
2023-01-06T10:51:51.697Z,96716.97
2023-01-06T10:54:22.258Z,96717.56
2023-01-06T10:56:52.875Z,96714.59
2023-01-06T10:59:19.452Z,96702.03
2023-01-06T11:01:51.231Z,96702.84
2023-01-06T11:04:18.975Z,96698.84
2023-01-06T11:06:48.824Z,96696.81
2023-01-06T11:09:39.317Z,96694.00
2023-01-06T11:12:11.762Z,96687.56
2023-01-06T11:14:39.265Z,96682.31
2023-01-06T11:17:14.831Z,96686.25
2023-01-06T11:19:45.353Z,96676.50
2023-01-06T11:24:58.137Z,96667.53
2023-01-06T11:27:24.689Z,96667.09
2023-01-06T11:29:51.348Z,96661.00
2023-01-06T11:32:17.883Z,96669.75
2023-01-06T11:34:50.609Z,96665.63
2023-01-06T11:37:28.915Z,96665.47
2023-01-06T11:40:00.593Z,96656.44
2023-01-06T11:42:37.071Z,96652.63
2023-01-06T11:45:04.766Z,96653.31
2023-01-06T11:47:31.518Z,96647.75
2023-01-06T11:50:01.257Z,96642.28
2023-01-06T11:52:31.536Z,96647.75
2023-01-06T11:54:58.039Z,96639.09
2023-01-06T11:57:43.260Z,96645.69
2023-01-06T12:00:32.609Z,96630.81
2023-01-06T12:03:07.616Z,96628.16
2023-01-06T12:05:43.519Z,96622.50
2023-01-06T12:08:21.161Z,96615.50
2023-01-06T12:10:51.503Z,96615.81
2023-01-06T12:13:18.024Z,96608.22
2023-01-06T12:15:46.852Z,96615.94
2023-01-06T12:18:13.347Z,96611.03
2023-01-06T12:20:43.516Z,96611.59
2023-01-06T12:23:16.380Z,96609.75
2023-01-06T12:25:44.989Z,96595.22
2023-01-06T12:28:31.577Z,96597.91
2023-01-06T12:30:58.183Z,96596.81
2023-01-06T12:33:43.431Z,96605.81
2023-01-06T12:36:20.103Z,96604.25
2023-01-06T12:38:57.449Z,96603.06
2023-01-06T12:41:39.685Z,96592.34
2023-01-06T12:44:32.387Z,96594.44
2023-01-06T12:46:58.862Z,96592.66
2023-01-06T12:50:00.548Z,96581.34
2023-01-06T12:52:31.622Z,96586.13
2023-01-06T12:54:58.839Z,96580.97
2023-01-06T12:57:41.807Z,96584.28
2023-01-06T13:00:26.769Z,96578.78
2023-01-06T13:02:59.492Z,96568.81
2023-01-06T13:05:33.468Z,96569.78
2023-01-06T13:08:18.741Z,96566.59
2023-01-06T13:10:56.944Z,96568.44
2023-01-06T13:13:31.951Z,96571.94
2023-01-06T13:16:02.620Z,96577.91
2023-01-06T13:18:34.970Z,96574.38
2023-01-06T13:21:06.997Z,96587.56
2023-01-06T13:24:02.844Z,96586.78
2023-01-06T13:26:55.738Z,96588.06
2023-01-06T13:29:40.752Z,96589.47
2023-01-06T13:32:33.663Z,96588.97
2023-01-06T13:35:00.160Z,96588.81
2023-01-06T13:37:35.966Z,96590.25
2023-01-06T13:40:17.449Z,96591.22
2023-01-06T13:42:53.663Z,96590.13
2023-01-06T13:45:25.286Z,96588.91
2023-01-06T13:47:52.056Z,96583.31
2023-01-06T13:50:20.021Z,96582.47
2023-01-06T13:52:47.056Z,96586.00
2023-01-06T13:55:19.586Z,96582.94
2023-01-06T13:57:46.192Z,96588.94
2023-01-06T14:00:16.663Z,96584.06
2023-01-06T14:02:46.195Z,96585.75
2023-01-06T14:05:18.685Z,96583.25
2023-01-06T14:07:50.184Z,96580.59
2023-01-06T14:10:35.254Z,96579.78
2023-01-06T14:13:03.555Z,96574.22
2023-01-06T14:15:31.801Z,96574.34
2023-01-06T14:18:00.118Z,96580.66
2023-01-06T14:20:34.849Z,96571.72
2023-01-06T14:23:21.557Z,96581.94
2023-01-06T14:25:53.897Z,96577.63
2023-01-06T14:28:20.398Z,96581.53
2023-01-06T14:30:47.800Z,96576.91
2023-01-06T14:33:32.964Z,96582.34
2023-01-06T14:36:17.999Z,96588.63
2023-01-06T14:38:52.981Z,96584.28
2023-01-06T14:41:26.458Z,96587.66
2023-01-06T14:43:58.482Z,96587.63
2023-01-06T14:46:39.388Z,96584.13
2023-01-06T14:49:14.715Z,96587.28
2023-01-06T14:51:43.841Z,96584.22
2023-01-06T14:54:27.213Z,96579.50
2023-01-06T14:56:58.200Z,96578.09
2023-01-06T14:59:24.783Z,96568.75
2023-01-06T15:02:12.033Z,96576.69
2023-01-06T15:04:38.757Z,96579.72
2023-01-06T15:07:17.072Z,96567.44
2023-01-06T15:09:44.041Z,96583.88
2023-01-06T15:12:30.183Z,96590.94
2023-01-06T15:14:57.323Z,96593.03
2023-01-06T15:17:23.842Z,96587.16
2023-01-06T15:19:52.067Z,96588.84
2023-01-06T15:22:24.227Z,96589.81
2023-01-06T15:24:51.329Z,96596.22
2023-01-06T15:27:18.557Z,96593.41
2023-01-06T15:29:52.537Z,96591.03
2023-01-06T15:32:20.095Z,96584.63
2023-01-06T15:34:47.522Z,96590.75
2023-01-06T15:37:22.842Z,96585.97
2023-01-06T15:39:50.003Z,96587.03
2023-01-06T15:42:21.892Z,96591.72
2023-01-06T15:44:59.003Z,96599.22
2023-01-06T15:47:25.485Z,96597.66
2023-01-06T15:49:53.888Z,96596.94
2023-01-06T15:52:20.417Z,96601.41
2023-01-06T15:54:47.128Z,96602.50
2023-01-06T15:57:17.072Z,96599.72
2023-01-06T15:59:52.950Z,96599.28
2023-01-06T16:02:21.272Z,96600.50
2023-01-06T16:04:49.150Z,96607.16
2023-01-06T16:07:23.797Z,96605.88
2023-01-06T16:09:50.278Z,96606.09
2023-01-06T16:12:18.237Z,96608.19
2023-01-06T16:14:47.159Z,96605.06
2023-01-06T16:17:19.886Z,96608.13
2023-01-06T16:19:48.763Z,96615.19
2023-01-06T16:22:30.823Z,96611.84
2023-01-06T16:24:59.237Z,96616.75
2023-01-06T16:27:26.212Z,96626.34
2023-01-06T16:30:10.786Z,96620.88
2023-01-06T16:32:41.559Z,96624.41
2023-01-06T16:35:16.606Z,96628.38
2023-01-06T16:37:43.782Z,96626.09
2023-01-06T16:40:11.952Z,96627.19
2023-01-06T16:42:45.122Z,96630.09
2023-01-06T16:45:20.642Z,96623.38
2023-01-06T16:47:47.302Z,96629.50
2023-01-06T16:50:24.491Z,96635.03
2023-01-06T16:52:54.463Z,96628.06
2023-01-06T16:55:22.500Z,96629.16
2023-01-06T16:57:50.248Z,96621.22
2023-01-06T17:00:19.253Z,96629.75
2023-01-06T17:02:45.876Z,96630.00
2023-01-06T17:05:26.188Z,96630.50
2023-01-06T17:07:57.418Z,96634.47
2023-01-06T17:10:24.510Z,96635.44
2023-01-06T17:13:12.774Z,96635.94
2023-01-06T17:15:39.440Z,96638.94
2023-01-06T17:18:20.900Z,96631.53
2023-01-06T17:20:47.427Z,96637.41
2023-01-06T17:23:13.946Z,96635.84
2023-01-06T17:25:42.630Z,96632.97
2023-01-06T17:28:17.871Z,96639.81
2023-01-06T17:30:44.610Z,96650.59
2023-01-06T17:33:12.197Z,96643.19
2023-01-06T17:35:38.781Z,96644.13
2023-01-06T17:38:13.584Z,96630.56
2023-01-06T17:40:40.128Z,96637.31
2023-01-06T17:43:14.932Z,96636.00
2023-01-06T17:45:41.442Z,96648.09
2023-01-06T17:48:11.682Z,96651.56
2023-01-06T17:50:41.101Z,96652.53
2023-01-06T17:53:30.758Z,96654.66
2023-01-06T17:55:59.705Z,96648.94
2023-01-06T17:58:28.823Z,96654.44
2023-01-06T18:00:55.584Z,96648.44
2023-01-06T18:03:31.473Z,96650.13
2023-01-06T18:06:03.534Z,96651.56
2023-01-06T18:08:31.962Z,96652.53
2023-01-06T18:11:07.311Z,96653.72
2023-01-06T18:13:33.842Z,96653.34
2023-01-06T18:16:01.021Z,96661.28
2023-01-06T18:18:31.922Z,96666.88
2023-01-06T18:21:05.343Z,96662.34
2023-01-06T18:23:33.332Z,96666.13
2023-01-06T18:26:01.265Z,96663.84
2023-01-06T18:28:29.796Z,96659.66
2023-01-06T18:30:58.051Z,96668.50
2023-01-06T18:33:24.891Z,96669.81
2023-01-06T18:35:57.308Z,96667.53
2023-01-06T18:38:27.586Z,96675.56
2023-01-06T18:40:54.852Z,96673.25
2023-01-06T18:43:21.661Z,96675.31
2023-01-06T18:45:50.708Z,96677.69
2023-01-06T18:48:31.976Z,96676.63
2023-01-06T18:51:02.085Z,96687.38
2023-01-06T18:53:30.352Z,96690.88
2023-01-06T18:55:57.786Z,96695.53
2023-01-06T18:58:30.230Z,96698.28
2023-01-06T19:01:00.963Z,96690.50
2023-01-06T19:03:36.319Z,96696.22
2023-01-06T19:06:08.650Z,96697.19
2023-01-06T19:08:37.139Z,96703.63
2023-01-06T19:11:11.475Z,96699.63
2023-01-06T19:13:38.231Z,96699.03
2023-01-06T19:16:19.183Z,96701.88
2023-01-06T19:18:45.782Z,96697.66
2023-01-06T19:21:13.965Z,96703.06
2023-01-06T19:23:40.803Z,96707.59
2023-01-06T19:26:24.909Z,96704.22
2023-01-06T19:28:57.744Z,96706.97
2023-01-06T19:31:24.435Z,96703.50
2023-01-06T19:33:53.754Z,96704.69
2023-01-06T19:36:23.100Z,96708.38
2023-01-06T19:38:49.904Z,96713.03
2023-01-06T19:41:30.065Z,96708.50
2023-01-06T19:44:15.360Z,96723.78
2023-01-06T19:46:43.049Z,96722.84
2023-01-06T19:49:23.396Z,96711.91
2023-01-06T19:51:51.436Z,96715.59
2023-01-06T19:54:26.447Z,96717.50
2023-01-06T19:56:53.739Z,96721.41
2023-01-06T19:59:40.585Z,96721.53
2023-01-06T20:02:07.278Z,96722.47
2023-01-06T20:04:34.165Z,96724.16
2023-01-06T20:07:02.303Z,96726.25
2023-01-06T20:09:30.104Z,96715.97
2023-01-06T20:11:56.886Z,96725.75
2023-01-06T20:14:23.426Z,96725.03
2023-01-06T20:16:49.972Z,96730.47
2023-01-06T20:19:16.619Z,96734.81
2023-01-06T20:21:43.454Z,96744.38
2023-01-06T20:24:10.626Z,96745.44
2023-01-06T20:26:37.367Z,96746.38
2023-01-06T20:29:07.335Z,96747.34
2023-01-06T20:31:33.973Z,96744.38
2023-01-06T20:34:00.698Z,96743.97
2023-01-06T20:36:27.364Z,96749.47
2023-01-06T20:38:53.943Z,96742.63
2023-01-06T20:41:20.495Z,96736.63
2023-01-06T20:43:47.050Z,96742.31
2023-01-06T20:46:14.727Z,96737.16
2023-01-06T20:48:41.469Z,96734.53
2023-01-06T20:51:08.333Z,96741.78
2023-01-06T20:53:34.867Z,96732.00
2023-01-06T20:56:01.443Z,96742.31
2023-01-06T20:58:27.942Z,96737.06
2023-01-06T21:00:54.499Z,96740.63
2023-01-06T21:03:21.089Z,96741.47
2023-01-06T21:05:47.646Z,96740.84
2023-01-06T21:08:14.233Z,96748.84
2023-01-06T21:10:40.769Z,96743.66
2023-01-06T21:13:07.348Z,96753.25
2023-01-06T21:15:33.863Z,96752.09
2023-01-06T21:18:00.417Z,96750.41
2023-01-06T21:20:26.955Z,96753.13
2023-01-06T21:22:53.496Z,96745.88
2023-01-06T21:25:20.088Z,96754.59
2023-01-06T21:27:46.767Z,96749.28
2023-01-06T21:30:13.609Z,96749.47
2023-01-06T21:32:40.163Z,96749.28
2023-01-06T21:35:06.885Z,96751.91
2023-01-06T21:37:33.455Z,96744.84
2023-01-06T21:40:00.180Z,96750.09
2023-01-06T21:42:45.391Z,96752.19
2023-01-06T21:45:12.042Z,96756.41
2023-01-06T21:47:38.535Z,96756.63
2023-01-06T21:50:05.940Z,96763.38
2023-01-06T21:52:32.724Z,96758.22
2023-01-06T21:54:59.238Z,96755.59
2023-01-06T21:57:25.861Z,96760.91
2023-01-06T21:59:52.338Z,96764.63
2023-01-06T22:02:18.966Z,96762.63
2023-01-06T22:04:45.582Z,96766.50
2023-01-06T22:07:13.041Z,96770.09
2023-01-06T22:09:40.742Z,96766.09
2023-01-06T22:12:08.263Z,96765.16
2023-01-06T22:14:34.921Z,96774.09
2023-01-06T22:17:01.553Z,96769.88
2023-01-06T22:19:29.357Z,96765.88
2023-01-06T22:21:56.443Z,96774.94
2023-01-06T22:24:24.194Z,96777.84
2023-01-06T22:26:50.736Z,96769.97
2023-01-06T22:29:17.308Z,96762.94
2023-01-06T22:31:43.787Z,96768.38
2023-01-06T22:34:10.348Z,96760.50
2023-01-06T22:36:36.847Z,96763.13
2023-01-06T22:39:03.913Z,96759.88
2023-01-06T22:41:30.497Z,96772.28
2023-01-06T22:43:57.023Z,96772.28
2023-01-06T22:46:23.741Z,96764.22
2023-01-06T22:48:50.504Z,96759.88
2023-01-06T22:51:16.999Z,96770.28
2023-01-06T22:53:43.498Z,96766.91
2023-01-06T22:56:11.164Z,96769.66
2023-01-06T22:58:39.883Z,96763.25
2023-01-06T23:01:07.305Z,96761.66
2023-01-06T23:03:34.422Z,96761.75
2023-01-06T23:06:05.519Z,96752.09
2023-01-06T23:08:33.150Z,96761.03
2023-01-06T23:11:10.463Z,96753.44
2023-01-06T23:13:37.921Z,96760.63
2023-01-06T23:16:14.987Z,96756.41
2023-01-06T23:18:42.640Z,96751.16
2023-01-06T23:21:10.452Z,96743.25
2023-01-06T23:23:38.512Z,96743.56
2023-01-06T23:26:09.263Z,96740.00
2023-01-06T23:28:35.762Z,96738.09
2023-01-06T23:31:05.286Z,96738.84
2023-01-06T23:33:32.210Z,96744.94
2023-01-06T23:36:02.690Z,96751.91
2023-01-06T23:38:30.102Z,96750.84
2023-01-06T23:41:03.617Z,96745.38
2023-01-06T23:43:30.972Z,96742.53
2023-01-06T23:46:01.230Z,96746.72
2023-01-06T23:48:28.962Z,96748.19
2023-01-06T23:50:55.575Z,96738.66
2023-01-06T23:53:22.314Z,96744.22
2023-01-06T23:55:59.347Z,96746.84
2023-01-06T23:58:26.676Z,96745.78
